Time;durP1;ratioP1;P1;durP2;ratioP2;P2;SDS_P1;SDS_P2;PMS_P1;PMS_P2;Temp;Humidity;BMP_temperature;BMP_pressure;BME280_temperature;BME280_humidity;BME280_pressure;Samples;Min_cycle;Max_cycle;Signal;HPM_P1;HPM_P2
2020/12/06 00:01:34;;;;;;;59.38;26.02;;;;;;;;;;5032153;28;20052;-64
2020/12/06 00:04:02;;;;;;;59.20;26.65;;;;;;;;;;5032115;28;20056;-67
2020/12/06 00:06:30;;;;;;;56.22;25.30;;;;;;;;;;5031181;28;20053;-67
2020/12/06 00:08:56;;;;;;;63.85;27.15;;;;;;;;;;5031878;28;20053;-64
2020/12/06 00:11:22;;;;;;;63.15;26.02;;;;;;;;;;5032251;28;20046;-65
2020/12/06 00:13:48;;;;;;;61.60;24.83;;;;;;;;;;5030934;28;20068;-66
2020/12/06 00:16:15;;;;;;;68.13;27.70;;;;;;;;;;5031572;28;20053;-65
2020/12/06 00:18:42;;;;;;;62.97;25.08;;;;;;;;;;5031385;28;20049;-67
2020/12/06 00:21:18;;;;;;;64.20;26.13;;;;;;;;;;5031918;28;20512;-67
2020/12/06 00:23:45;;;;;;;58.97;24.98;;;;;;;;;;5031302;28;20049;-66
2020/12/06 00:26:13;;;;;;;57.10;25.75;;;;;;;;;;5031000;28;20049;-66
2020/12/06 00:28:39;;;;;;;61.50;25.90;;;;;;;;;;5029792;28;20049;-69
2020/12/06 00:31:05;;;;;;;63.15;25.67;;;;;;;;;;5031298;28;20057;-69
2020/12/06 00:33:31;;;;;;;53.10;23.92;;;;;;;;;;5031753;28;20045;-64
2020/12/06 00:35:58;;;;;;;48.22;24.02;;;;;;;;;;5030861;28;20075;-68
2020/12/06 00:38:24;;;;;;;52.67;25.10;;;;;;;;;;5031004;28;20065;-65
2020/12/06 00:40:50;;;;;;;53.10;25.40;;;;;;;;;;5030933;28;20416;-65
2020/12/06 00:43:16;;;;;;;55.67;25.35;;;;;;;;;;5030757;28;20048;-65
2020/12/06 00:45:42;;;;;;;56.72;27.25;;;;;;;;;;5030617;28;20403;-66
2020/12/06 00:48:09;;;;;;;61.08;26.13;;;;;;;;;;5030866;28;20049;-66
2020/12/06 00:50:35;;;;;;;63.15;27.83;;;;;;;;;;5031381;28;20061;-66
2020/12/06 00:53:01;;;;;;;59.03;26.58;;;;;;;;;;5014577;28;20055;-65
2020/12/06 00:55:27;;;;;;;63.72;28.08;;;;;;;;;;5030725;28;20480;-66
2020/12/06 00:57:53;;;;;;;61.30;27.30;;;;;;;;;;5030571;28;20084;-66
2020/12/06 01:00:20;;;;;;;73.00;27.83;;;;;;;;;;5031315;28;20057;-66
2020/12/06 01:02:46;;;;;;;62.67;26.30;;;;;;;;;;5029945;28;20531;-65
2020/12/06 01:05:13;;;;;;;64.00;26.27;;;;;;;;;;5030594;28;20053;-65
2020/12/06 01:07:40;;;;;;;86.10;28.58;;;;;;;;;;5030585;28;20054;-66
2020/12/06 01:10:08;;;;;;;55.92;26.38;;;;;;;;;;5031443;28;20045;-65
2020/12/06 01:12:35;;;;;;;69.88;26.77;;;;;;;;;;5030766;28;20041;-65
2020/12/06 01:15:05;;;;;;;72.55;26.95;;;;;;;;;;5029690;28;20057;-65
2020/12/06 01:17:32;;;;;;;79.88;29.30;;;;;;;;;;5030244;28;20059;-64
2020/12/06 01:19:58;;;;;;;86.07;27.90;;;;;;;;;;5030629;28;20071;-65
2020/12/06 01:22:24;;;;;;;59.20;26.08;;;;;;;;;;5030618;28;20053;-65
2020/12/06 01:24:50;;;;;;;69.32;28.60;;;;;;;;;;5030056;28;20053;-66
2020/12/06 01:27:16;;;;;;;66.93;26.23;;;;;;;;;;5029834;28;20053;-65
2020/12/06 01:29:43;;;;;;;58.85;26.83;;;;;;;;;;5029883;28;20412;-66
2020/12/06 01:32:09;;;;;;;68.40;26.55;;;;;;;;;;5030448;28;20045;-65
2020/12/06 01:34:35;;;;;;;69.05;26.58;;;;;;;;;;5030699;28;20048;-66
2020/12/06 01:37:01;;;;;;;66.40;26.75;;;;;;;;;;5029776;28;20485;-67
2020/12/06 01:39:27;;;;;;;69.93;28.25;;;;;;;;;;5029912;28;20515;-65
2020/12/06 01:41:54;;;;;;;74.50;26.98;;;;;;;;;;5030262;28;20401;-67
2020/12/06 01:44:22;;;;;;;77.68;29.25;;;;;;;;;;5030246;28;20050;-68
2020/12/06 01:46:49;;;;;;;71.07;28.30;;;;;;;;;;5029615;28;20063;-68
2020/12/06 01:49:15;;;;;;;79.80;29.73;;;;;;;;;;5013992;28;20289;-66
2020/12/06 01:51:42;;;;;;;76.80;28.90;;;;;;;;;;5015514;28;20145;-65
2020/12/06 01:54:08;;;;;;;69.45;27.55;;;;;;;;;;5031604;28;20099;-67
2020/12/06 01:56:35;;;;;;;89.03;30.52;;;;;;;;;;5036602;28;20472;-63
2020/12/06 01:59:01;;;;;;;87.82;31.77;;;;;;;;;;5037094;28;20064;-64
2020/12/06 02:01:27;;;;;;;81.72;31.80;;;;;;;;;;5030497;28;20049;-67
2020/12/06 02:03:54;;;;;;;78.50;30.95;;;;;;;;;;5030219;28;20053;-68
2020/12/06 02:06:20;;;;;;;87.55;32.60;;;;;;;;;;5029681;28;20065;-68
2020/12/06 02:08:49;;;;;;;88.57;33.38;;;;;;;;;;5029181;28;20407;-66
2020/12/06 02:11:36;;;;;;;73.10;30.27;;;;;;;;;;5030192;28;20044;-65
2020/12/06 02:14:02;;;;;;;77.20;30.42;;;;;;;;;;5029014;28;20037;-67
2020/12/06 02:16:28;;;;;;;73.70;31.20;;;;;;;;;;5029648;28;20046;-67
2020/12/06 02:18:54;;;;;;;86.00;31.92;;;;;;;;;;5029466;28;20054;-65
2020/12/06 02:21:21;;;;;;;85.80;31.13;;;;;;;;;;5030083;28;20132;-65
2020/12/06 02:23:47;;;;;;;88.03;31.45;;;;;;;;;;5029563;28;20499;-65
2020/12/06 02:26:13;;;;;;;72.53;30.10;;;;;;;;;;5029738;28;20053;-68
2020/12/06 02:28:39;;;;;;;80.95;30.45;;;;;;;;;;5029554;28;20064;-64
2020/12/06 02:31:05;;;;;;;80.22;28.98;;;;;;;;;;5029934;28;20484;-65
2020/12/06 02:33:32;;;;;;;75.22;29.30;;;;;;;;;;5029452;28;20052;-67
2020/12/06 02:35:58;;;;;;;68.78;30.17;;;;;;;;;;5028882;28;20496;-66
2020/12/06 02:38:25;;;;;;;73.78;29.70;;;;;;;;;;5028878;28;20049;-66
2020/12/06 02:40:51;;;;;;;78.50;30.20;;;;;;;;;;5029686;28;20045;-67
2020/12/06 02:43:17;;;;;;;72.75;30.85;;;;;;;;;;5029277;28;20057;-63
2020/12/06 02:45:43;;;;;;;85.40;31.85;;;;;;;;;;5028611;28;20052;-68
2020/12/06 02:48:09;;;;;;;86.43;32.83;;;;;;;;;;5029154;28;20492;-66
2020/12/06 02:50:35;;;;;;;90.95;32.35;;;;;;;;;;5030486;28;20412;-66
2020/12/06 02:53:01;;;;;;;93.60;32.05;;;;;;;;;;5033256;28;20049;-66
2020/12/06 02:55:28;;;;;;;89.40;31.80;;;;;;;;;;5032647;28;20065;-64
2020/12/06 02:57:54;;;;;;;95.82;30.88;;;;;;;;;;5016561;28;20530;-65
2020/12/06 03:00:20;;;;;;;98.78;31.42;;;;;;;;;;5031955;28;20054;-65
2020/12/06 03:02:47;;;;;;;93.68;31.30;;;;;;;;;;5033214;28;20053;-65
2020/12/06 03:05:13;;;;;;;92.68;31.88;;;;;;;;;;5032304;28;20317;-67
2020/12/06 03:07:40;;;;;;;114.85;34.75;;;;;;;;;;5024644;28;20053;-67
2020/12/06 03:10:06;;;;;;;100.28;32.40;;;;;;;;;;5033114;28;20400;-64
2020/12/06 03:12:34;;;;;;;118.50;34.45;;;;;;;;;;5032996;28;20061;-65
2020/12/06 03:15:00;;;;;;;105.65;33.85;;;;;;;;;;5032673;28;20484;-68
2020/12/06 03:17:27;;;;;;;83.75;30.90;;;;;;;;;;5032638;28;20439;-65
2020/12/06 03:19:53;;;;;;;94.28;31.48;;;;;;;;;;5033136;28;20049;-67
2020/12/06 03:22:19;;;;;;;99.60;30.55;;;;;;;;;;5032936;28;20492;-68
2020/12/06 03:24:45;;;;;;;85.78;30.60;;;;;;;;;;5015921;28;20481;-67
2020/12/06 03:27:11;;;;;;;94.97;33.38;;;;;;;;;;5033471;28;20061;-66
2020/12/06 03:29:37;;;;;;;101.82;31.15;;;;;;;;;;5032929;28;20045;-67
2020/12/06 03:32:03;;;;;;;100.30;30.88;;;;;;;;;;5032695;28;20499;-64
2020/12/06 03:34:30;;;;;;;89.75;30.58;;;;;;;;;;5012811;28;20348;-67
2020/12/06 03:36:56;;;;;;;102.50;32.38;;;;;;;;;;5012659;28;20057;-66
2020/12/06 03:39:22;;;;;;;110.85;31.95;;;;;;;;;;5016366;28;20440;-66
2020/12/06 03:41:48;;;;;;;104.07;32.38;;;;;;;;;;5032651;28;20403;-65
2020/12/06 03:44:14;;;;;;;108.50;30.52;;;;;;;;;;5033511;28;20045;-64
2020/12/06 03:46:40;;;;;;;102.28;30.42;;;;;;;;;;5031823;28;20056;-63
2020/12/06 03:49:07;;;;;;;106.22;32.35;;;;;;;;;;5032436;28;20050;-65
2020/12/06 03:51:33;;;;;;;129.05;33.38;;;;;;;;;;5032460;28;20484;-67
2020/12/06 03:53:59;;;;;;;123.50;32.88;;;;;;;;;;5032214;28;20049;-67
2020/12/06 03:56:25;;;;;;;122.38;31.05;;;;;;;;;;5031945;28;20053;-65
2020/12/06 03:58:51;;;;;;;112.40;32.33;;;;;;;;;;5032201;28;20056;-66
2020/12/06 04:01:18;;;;;;;93.90;30.13;;;;;;;;;;5032126;28;20051;-65
2020/12/06 04:03:44;;;;;;;98.60;32.00;;;;;;;;;;5032813;28;20061;-67
2020/12/06 04:06:10;;;;;;;93.38;29.65;;;;;;;;;;5031458;28;20408;-67
2020/12/06 04:08:37;;;;;;;108.18;31.48;;;;;;;;;;5032319;28;20057;-66
2020/12/06 04:11:05;;;;;;;100.35;30.67;;;;;;;;;;5032145;28;20041;-64
2020/12/06 04:13:32;;;;;;;119.63;33.05;;;;;;;;;;5031728;28;20045;-65
2020/12/06 04:15:58;;;;;;;93.07;31.17;;;;;;;;;;5031335;28;20408;-66
2020/12/06 04:18:25;;;;;;;88.75;28.63;;;;;;;;;;5032344;28;20426;-66
2020/12/06 04:20:51;;;;;;;90.07;29.90;;;;;;;;;;5031942;28;20057;-64
2020/12/06 04:23:17;;;;;;;87.18;27.52;;;;;;;;;;5031720;28;20038;-64
2020/12/06 04:25:43;;;;;;;94.32;30.52;;;;;;;;;;5032569;28;20045;-64
2020/12/06 04:28:10;;;;;;;80.10;29.55;;;;;;;;;;5033152;28;20479;-65
2020/12/06 04:30:37;;;;;;;95.45;29.63;;;;;;;;;;5031614;28;20053;-67
2020/12/06 04:36:51;;;;;;;102.70;31.40;;;;;;;;;;5023031;23;20100;-65
2020/12/06 04:39:17;;;;;;;96.25;30.00;;;;;;;;;;5030686;28;20492;-67
2020/12/06 04:41:43;;;;;;;88.28;28.65;;;;;;;;;;5032371;28;20049;-65
2020/12/06 04:44:09;;;;;;;97.28;29.73;;;;;;;;;;5031093;28;20056;-66
2020/12/06 04:46:39;;;;;;;106.03;32.20;;;;;;;;;;5031084;28;20053;-65
2020/12/06 04:49:05;;;;;;;99.63;31.10;;;;;;;;;;5031390;28;20125;-65
2020/12/06 04:51:41;;;;;;;96.55;30.17;;;;;;;;;;5032590;28;20053;-64
2020/12/06 04:54:08;;;;;;;99.95;31.35;;;;;;;;;;5031031;28;20053;-67
2020/12/06 04:56:34;;;;;;;98.97;28.88;;;;;;;;;;5030961;28;20046;-67
2020/12/06 04:59:02;;;;;;;90.95;31.63;;;;;;;;;;5014788;28;20602;-66
2020/12/06 05:01:38;;;;;;;105.57;31.17;;;;;;;;;;5031142;28;20056;-64
2020/12/06 05:04:11;;;;;;;99.00;30.17;;;;;;;;;;5030802;28;20063;-65
2020/12/06 05:06:41;;;;;;;104.65;30.27;;;;;;;;;;5030443;28;20045;-65
2020/12/06 05:09:09;;;;;;;91.85;29.30;;;;;;;;;;5031037;28;20496;-64
2020/12/06 05:11:36;;;;;;;93.13;30.10;;;;;;;;;;5031103;28;20052;-65
2020/12/06 05:14:06;;;;;;;100.15;29.20;;;;;;;;;;5030129;28;20042;-68
2020/12/06 05:16:36;;;;;;;105.38;32.05;;;;;;;;;;5030528;28;20053;-67
2020/12/06 05:19:03;;;;;;;104.03;30.85;;;;;;;;;;5031048;28;20053;-67
2020/12/06 05:21:41;;;;;;;96.93;30.60;;;;;;;;;;5030980;28;20065;-67
2020/12/06 05:24:07;;;;;;;97.85;31.23;;;;;;;;;;5030467;28;20046;-67
2020/12/06 05:26:34;;;;;;;92.50;30.63;;;;;;;;;;5030263;28;20061;-67
2020/12/06 05:29:02;;;;;;;84.63;28.08;;;;;;;;;;5030750;28;20056;-67
2020/12/06 05:31:28;;;;;;;99.97;30.58;;;;;;;;;;5030920;28;20052;-66
2020/12/06 05:33:55;;;;;;;101.47;31.45;;;;;;;;;;5031222;28;20373;-66
2020/12/06 05:36:21;;;;;;;86.60;30.35;;;;;;;;;;5030191;28;20514;-66
2020/12/06 05:38:47;;;;;;;90.47;29.50;;;;;;;;;;5030508;28;20041;-68
2020/12/06 05:41:14;;;;;;;100.13;31.50;;;;;;;;;;5030347;28;20566;-70
2020/12/06 05:43:40;;;;;;;84.25;29.88;;;;;;;;;;5030453;28;20045;-71
2020/12/06 05:46:10;;;;;;;83.50;29.40;;;;;;;;;;5029698;28;20053;-67
2020/12/06 05:48:37;;;;;;;84.22;30.90;;;;;;;;;;5030440;28;20046;-67
2020/12/06 05:51:04;;;;;;;80.35;27.95;;;;;;;;;;5030207;28;20065;-66
2020/12/06 05:53:31;;;;;;;96.50;29.92;;;;;;;;;;5030442;28;20053;-64
2020/12/06 05:56:05;;;;;;;98.00;29.10;;;;;;;;;;5029748;28;20124;-65
2020/12/06 05:58:34;;;;;;;82.70;28.45;;;;;;;;;;5030447;28;20057;-65
2020/12/06 06:01:01;;;;;;;84.97;29.85;;;;;;;;;;5029513;28;20049;-65
2020/12/06 06:03:29;;;;;;;85.05;31.70;;;;;;;;;;5030562;28;20050;-66
2020/12/06 06:05:56;;;;;;;88.55;29.15;;;;;;;;;;5029099;28;20492;-65
2020/12/06 06:08:25;;;;;;;84.97;30.20;;;;;;;;;;5013185;28;20072;-66
2020/12/06 06:11:04;;;;;;;83.63;29.05;;;;;;;;;;5028808;28;20477;-65
2020/12/06 06:13:45;;;;;;;85.80;29.75;;;;;;;;;;5010686;28;20488;-66
2020/12/06 06:16:14;;;;;;;;;;;;;;;;;;4995145;28;20058;-65
2020/12/06 06:18:41;;;;;;;85.32;28.55;;;;;;;;;;5024516;28;19921;-65
2020/12/06 06:21:07;;;;;;;84.93;29.25;;;;;;;;;;5010175;28;20061;-66
2020/12/06 06:23:33;;;;;;;80.03;29.70;;;;;;;;;;5013007;28;20057;-66
2020/12/06 06:26:01;;;;;;;80.13;28.17;;;;;;;;;;5016310;28;20054;-67
2020/12/06 06:28:27;;;;;;;71.28;28.85;;;;;;;;;;5001428;28;20049;-66
2020/12/06 06:30:55;;;;;;;77.32;27.98;;;;;;;;;;5013734;28;20061;-65
2020/12/06 06:33:21;;;;;;;82.68;28.65;;;;;;;;;;5014258;28;20046;-65
2020/12/06 06:35:47;;;;;;;74.00;29.20;;;;;;;;;;5013306;28;20064;-63
2020/12/06 06:38:13;;;;;;;66.28;26.55;;;;;;;;;;4997667;28;20048;-67
2020/12/06 06:40:40;;;;;;;77.03;27.05;;;;;;;;;;5028958;28;20419;-65
2020/12/06 06:43:06;;;;;;;71.90;27.52;;;;;;;;;;5033880;28;20045;-64
2020/12/06 06:45:46;;;;;;;82.32;28.75;;;;;;;;;;5033163;28;20061;-65
2020/12/06 06:48:16;;;;;;;75.63;28.88;;;;;;;;;;5033396;28;20083;-63
2020/12/06 06:50:47;;;;;;;77.30;28.13;;;;;;;;;;5017765;28;20515;-64
2020/12/06 06:53:16;;;;;;;81.18;28.05;;;;;;;;;;5033643;28;20484;-67
2020/12/06 06:55:50;;;;;;;73.07;28.23;;;;;;;;;;5016389;28;20052;-66
2020/12/06 06:58:17;;;;;;;72.00;27.35;;;;;;;;;;5033270;28;20396;-66
2020/12/06 07:00:44;;;;;;;68.05;27.00;;;;;;;;;;5034390;28;20049;-67
2020/12/06 07:03:13;;;;;;;76.47;27.40;;;;;;;;;;5033303;28;20057;-66
2020/12/06 07:05:39;;;;;;;78.22;28.92;;;;;;;;;;5016107;28;20053;-65
2020/12/06 07:08:11;;;;;;;76.30;28.27;;;;;;;;;;5032605;28;20057;-67
2020/12/06 07:10:38;;;;;;;77.38;28.90;;;;;;;;;;5032996;28;20056;-67
2020/12/06 07:13:05;;;;;;;76.35;28.13;;;;;;;;;;5000723;28;20385;-68
2020/12/06 07:15:31;;;;;;;78.93;29.83;;;;;;;;;;5032515;28;20059;-65
2020/12/06 07:18:01;;;;;;;79.57;28.70;;;;;;;;;;5032711;28;20045;-64
2020/12/06 07:20:28;;;;;;;76.22;28.48;;;;;;;;;;5033131;28;20046;-65
2020/12/06 07:22:55;;;;;;;74.82;25.65;;;;;;;;;;5033038;28;20603;-67
2020/12/06 07:25:22;;;;;;;80.45;27.35;;;;;;;;;;5032721;28;20049;-66
2020/12/06 07:27:49;;;;;;;74.10;29.02;;;;;;;;;;5032746;28;20503;-62
2020/12/06 07:30:18;;;;;;;74.70;29.08;;;;;;;;;;5032791;28;20052;-66
2020/12/06 07:32:45;;;;;;;72.32;27.60;;;;;;;;;;5023816;28;20037;-62
2020/12/06 07:35:14;;;;;;;76.05;27.10;;;;;;;;;;5021949;28;20057;-67
2020/12/06 07:37:40;;;;;;;77.28;28.00;;;;;;;;;;5017309;28;20057;-65
2020/12/06 07:40:08;;;;;;;82.03;28.42;;;;;;;;;;5023620;28;20133;-62
2020/12/06 07:42:35;;;;;;;81.97;28.33;;;;;;;;;;5017279;28;20060;-69
2020/12/06 07:45:02;;;;;;;73.65;26.95;;;;;;;;;;5019090;28;20072;-70
2020/12/06 07:47:29;;;;;;;85.82;28.92;;;;;;;;;;5019528;28;20059;-70
2020/12/06 07:50:00;;;;;;;82.75;30.30;;;;;;;;;;5022375;28;20417;-70
2020/12/06 07:52:30;;;;;;;79.25;27.95;;;;;;;;;;5019878;28;20050;-69
2020/12/06 07:54:59;;;;;;;89.85;29.67;;;;;;;;;;5011538;28;20068;-68
2020/12/06 07:57:37;;;;;;;83.88;28.92;;;;;;;;;;5018200;28;20060;-69
2020/12/06 08:00:17;;;;;;;83.35;29.30;;;;;;;;;;5017066;28;20049;-68
2020/12/06 08:02:54;;;;;;;88.53;28.88;;;;;;;;;;5031375;28;20042;-69
2020/12/06 08:05:23;;;;;;;82.68;29.15;;;;;;;;;;5016060;28;20041;-67
2020/12/06 08:07:58;;;;;;;82.10;29.25;;;;;;;;;;5016573;28;20477;-68
2020/12/06 08:10:28;;;;;;;84.88;30.08;;;;;;;;;;5035089;28;20123;-68
2020/12/06 08:12:55;;;;;;;82.15;30.38;;;;;;;;;;5020141;28;20063;-70
2020/12/06 08:15:25;;;;;;;82.13;30.65;;;;;;;;;;4993045;28;20111;-68
2020/12/06 08:17:52;;;;;;;93.35;30.75;;;;;;;;;;5019435;28;20053;-69
2020/12/06 08:20:23;;;;;;;75.25;27.10;;;;;;;;;;5018090;28;20484;-67
2020/12/06 08:22:52;;;;;;;86.20;29.98;;;;;;;;;;5018848;28;20052;-68
2020/12/06 08:25:21;;;;;;;86.65;31.15;;;;;;;;;;5019768;28;20050;-69
2020/12/06 08:27:49;;;;;;;88.20;31.95;;;;;;;;;;5035188;28;20049;-67
2020/12/06 08:30:18;;;;;;;89.15;30.27;;;;;;;;;;5016676;28;20053;-69
2020/12/06 08:33:04;;;;;;;89.05;29.13;;;;;;;;;;5016004;28;20052;-68
2020/12/06 08:35:40;;;;;;;80.20;28.58;;;;;;;;;;5035198;28;20340;-69
2020/12/06 08:38:20;;;;;;;90.28;33.17;;;;;;;;;;5020148;28;20533;-69
2020/12/06 08:41:04;;;;;;;88.50;29.30;;;;;;;;;;5015604;28;20046;-69
2020/12/06 08:43:50;;;;;;;97.30;29.55;;;;;;;;;;5018418;28;20455;-69
2020/12/06 08:46:18;;;;;;;91.35;29.58;;;;;;;;;;5018504;28;20049;-69
2020/12/06 08:48:45;;;;;;;99.22;29.92;;;;;;;;;;5017994;28;20162;-69
2020/12/06 08:51:34;;;;;;;93.68;30.63;;;;;;;;;;5014130;28;20057;-69
2020/12/06 08:54:05;;;;;;;76.55;28.38;;;;;;;;;;5020733;28;20049;-68
2020/12/06 08:56:33;;;;;;;85.43;32.05;;;;;;;;;;5019442;28;20493;-70
2020/12/06 08:59:25;;;;;;;79.57;28.20;;;;;;;;;;5014226;28;20049;-69
2020/12/06 09:01:53;;;;;;;97.80;28.92;;;;;;;;;;5014903;28;20409;-69
2020/12/06 09:04:19;;;;;;;101.93;27.35;;;;;;;;;;4999429;28;20054;-69
2020/12/06 09:06:46;;;;;;;84.60;23.70;;;;;;;;;;5017485;28;20049;-69
2020/12/06 09:09:13;;;;;;;87.22;26.92;;;;;;;;;;5017630;28;20057;-69
2020/12/06 09:11:39;;;;;;;79.35;24.98;;;;;;;;;;5031621;28;20053;-69
2020/12/06 09:14:06;;;;;;;84.32;25.20;;;;;;;;;;5032391;28;20053;-69
2020/12/06 09:16:32;;;;;;;69.78;24.63;;;;;;;;;;5014384;28;20038;-69
2020/12/06 09:18:58;;;;;;;69.60;23.70;;;;;;;;;;5018663;28;20046;-69
2020/12/06 09:21:25;;;;;;;71.93;23.45;;;;;;;;;;5019120;28;20054;-69
2020/12/06 09:23:51;;;;;;;72.80;24.33;;;;;;;;;;5018584;28;20049;-69
2020/12/06 09:26:17;;;;;;;69.70;21.17;;;;;;;;;;5011818;28;20046;-69
2020/12/06 09:28:44;;;;;;;65.18;22.15;;;;;;;;;;5016917;28;20373;-69
2020/12/06 09:31:30;;;;;;;69.82;21.63;;;;;;;;;;5018470;28;20496;-70
2020/12/06 09:33:56;;;;;;;62.33;20.83;;;;;;;;;;5018996;28;20717;-69
2020/12/06 09:36:22;;;;;;;72.43;23.35;;;;;;;;;;5014952;28;20092;-69
2020/12/06 09:38:49;;;;;;;75.70;22.08;;;;;;;;;;5018294;28;20404;-69
2020/12/06 09:41:16;;;;;;;70.65;22.73;;;;;;;;;;5016572;28;20042;-70
2020/12/06 09:43:43;;;;;;;73.95;22.13;;;;;;;;;;5015404;28;20076;-69
2020/12/06 09:46:10;;;;;;;79.75;24.23;;;;;;;;;;5015301;28;20041;-69
2020/12/06 09:48:37;;;;;;;64.80;21.35;;;;;;;;;;5018837;28;20064;-69
2020/12/06 09:51:04;;;;;;;72.93;21.52;;;;;;;;;;5015407;28;20054;-69
2020/12/06 09:53:31;;;;;;;64.07;19.70;;;;;;;;;;5018946;28;20458;-69
2020/12/06 09:55:57;;;;;;;59.92;19.48;;;;;;;;;;5014748;28;20053;-69
2020/12/06 09:58:23;;;;;;;68.78;21.08;;;;;;;;;;5017989;28;20050;-69
2020/12/06 10:00:49;;;;;;;62.50;18.15;;;;;;;;;;5019923;28;20045;-68
2020/12/06 10:03:16;;;;;;;53.33;18.08;;;;;;;;;;5025474;28;20072;-69
2020/12/06 10:05:42;;;;;;;55.88;18.65;;;;;;;;;;5019590;28;20456;-69
2020/12/06 10:08:09;;;;;;;64.15;20.67;;;;;;;;;;5022696;28;20061;-69
2020/12/06 10:10:35;;;;;;;68.88;19.05;;;;;;;;;;5021300;28;20054;-70
2020/12/06 10:13:02;;;;;;;62.72;20.88;;;;;;;;;;5023710;28;20056;-69
2020/12/06 10:15:28;;;;;;;60.15;18.80;;;;;;;;;;5036381;28;20049;-69
2020/12/06 10:17:56;;;;;;;65.80;20.67;;;;;;;;;;5026779;28;20145;-69
2020/12/06 10:20:22;;;;;;;64.78;19.40;;;;;;;;;;5024487;28;20493;-69
2020/12/06 10:22:48;;;;;;;69.40;19.45;;;;;;;;;;5024219;28;20068;-69
2020/12/06 10:25:15;;;;;;;60.15;20.08;;;;;;;;;;5020764;28;20054;-69
2020/12/06 10:27:41;;;;;;;58.00;19.75;;;;;;;;;;5027756;28;20474;-69
2020/12/06 10:30:07;;;;;;;53.15;19.38;;;;;;;;;;5024335;28;20046;-69
2020/12/06 10:39:41;;;;;;;47.65;16.67;;;;;;;;;;5010946;23;20058;-69
2020/12/06 10:42:07;;;;;;;51.67;17.98;;;;;;;;;;5019491;28;20081;-69
2020/12/06 10:44:34;;;;;;;53.03;17.77;;;;;;;;;;5002657;28;20089;-69
2020/12/06 10:47:01;;;;;;;48.17;15.95;;;;;;;;;;5004747;28;20064;-69
2020/12/06 10:49:27;;;;;;;36.13;13.88;;;;;;;;;;5000587;28;20054;-70
2020/12/06 10:51:53;;;;;;;41.22;16.25;;;;;;;;;;5004419;28;20046;-69
2020/12/06 10:54:19;;;;;;;44.17;17.55;;;;;;;;;;5004232;28;20053;-69
2020/12/06 10:56:46;;;;;;;43.97;15.82;;;;;;;;;;5003343;28;20042;-69
2020/12/06 10:59:12;;;;;;;43.13;16.42;;;;;;;;;;5003796;28;20260;-69
2020/12/06 11:01:38;;;;;;;45.58;16.08;;;;;;;;;;5001418;28;20085;-69
2020/12/06 11:04:05;;;;;;;44.78;16.70;;;;;;;;;;5017255;28;20048;-69
2020/12/06 11:06:32;;;;;;;47.97;18.70;;;;;;;;;;5006068;28;20042;-68
2020/12/06 11:08:59;;;;;;;46.47;18.23;;;;;;;;;;5001348;28;20053;-69
2020/12/06 11:11:25;;;;;;;45.17;18.35;;;;;;;;;;5000101;28;20042;-69
2020/12/06 11:13:51;;;;;;;53.25;18.90;;;;;;;;;;4999878;28;20050;-69
2020/12/06 11:16:19;;;;;;;52.25;20.17;;;;;;;;;;4998086;28;20052;-68
2020/12/06 11:18:47;;;;;;;48.17;18.35;;;;;;;;;;4981301;28;20092;-69
2020/12/06 11:21:15;;;;;;;54.55;19.08;;;;;;;;;;4998084;28;20046;-69
2020/12/06 11:23:43;;;;;;;51.17;18.42;;;;;;;;;;5001718;28;20046;-69
2020/12/06 11:26:11;;;;;;;48.35;18.08;;;;;;;;;;4997504;28;20053;-69
2020/12/06 11:28:38;;;;;;;58.03;19.63;;;;;;;;;;4999886;28;20050;-69
2020/12/06 11:31:04;;;;;;;42.85;17.25;;;;;;;;;;4996997;28;20046;-68
2020/12/06 11:33:43;;;;;;;46.65;17.92;;;;;;;;;;4995485;28;20065;-69
2020/12/06 11:36:10;;;;;;;47.95;17.92;;;;;;;;;;4999680;28;20519;-69
2020/12/06 11:38:38;;;;;;;41.30;17.70;;;;;;;;;;4996193;28;20050;-69
2020/12/06 11:41:08;;;;;;;41.67;18.55;;;;;;;;;;4992142;28;20047;-69
2020/12/06 11:43:36;;;;;;;43.78;17.35;;;;;;;;;;4999719;28;20513;-68
2020/12/06 11:46:02;;;;;;;42.15;18.95;;;;;;;;;;5001433;28;20133;-69
2020/12/06 11:48:29;;;;;;;34.95;15.98;;;;;;;;;;4999668;28;20493;-69
2020/12/06 11:50:55;;;;;;;34.65;17.13;;;;;;;;;;4998249;28;20814;-68
2020/12/06 11:53:22;;;;;;;39.45;19.75;;;;;;;;;;5003752;28;20049;-69
2020/12/06 11:55:49;;;;;;;39.03;18.48;;;;;;;;;;4998022;28;20046;-69
2020/12/06 11:58:15;;;;;;;47.03;17.25;;;;;;;;;;5000349;28;20073;-69
2020/12/06 12:00:42;;;;;;;51.88;18.17;;;;;;;;;;4990510;28;20440;-68
2020/12/06 12:03:09;;;;;;;47.10;18.52;;;;;;;;;;5001556;28;20046;-69
2020/12/06 12:05:35;;;;;;;40.80;16.88;;;;;;;;;;4995932;28;20395;-68
2020/12/06 12:08:08;;;;;;;41.80;17.98;;;;;;;;;;4994031;28;20477;-69
2020/12/06 12:10:35;;;;;;;43.72;18.92;;;;;;;;;;5001672;28;20046;-69
2020/12/06 12:13:03;;;;;;;47.80;20.30;;;;;;;;;;4983038;28;20068;-68
2020/12/06 12:15:29;;;;;;;38.45;17.88;;;;;;;;;;4998994;28;20516;-69
2020/12/06 12:17:56;;;;;;;41.13;17.98;;;;;;;;;;4999862;28;20137;-68
2020/12/06 12:20:23;;;;;;;45.30;19.00;;;;;;;;;;4999846;28;20062;-69
2020/12/06 12:22:50;;;;;;;39.47;17.63;;;;;;;;;;4999680;28;20173;-69
2020/12/06 12:25:20;;;;;;;38.58;16.20;;;;;;;;;;5000628;28;20053;-68
2020/12/06 12:27:46;;;;;;;35.33;15.82;;;;;;;;;;4998463;28;20125;-69
2020/12/06 12:30:17;;;;;;;44.42;18.42;;;;;;;;;;4996929;28;20050;-68
2020/12/06 12:32:43;;;;;;;37.13;15.65;;;;;;;;;;4987176;28;20413;-68
2020/12/06 12:35:10;;;;;;;37.95;16.33;;;;;;;;;;4993859;28;20038;-68
2020/12/06 12:37:36;;;;;;;39.70;17.05;;;;;;;;;;5000580;28;20047;-68
2020/12/06 12:40:03;;;;;;;35.08;16.15;;;;;;;;;;5014666;28;20038;-68
2020/12/06 12:42:29;;;;;;;26.98;13.38;;;;;;;;;;5016948;28;20055;-68
2020/12/06 12:44:55;;;;;;;35.78;16.40;;;;;;;;;;5022153;28;20045;-69
2020/12/06 12:47:21;;;;;;;32.13;15.05;;;;;;;;;;5011557;28;20481;-69
2020/12/06 12:49:48;;;;;;;32.22;15.43;;;;;;;;;;4993966;28;20504;-68
2020/12/06 12:52:14;;;;;;;31.75;14.98;;;;;;;;;;4995152;28;20046;-68
2020/12/06 12:54:40;;;;;;;29.55;16.40;;;;;;;;;;4998089;28;20512;-68
2020/12/06 12:57:07;;;;;;;27.13;14.55;;;;;;;;;;4999329;28;20104;-69
2020/12/06 12:59:33;;;;;;;27.15;14.55;;;;;;;;;;4992514;28;20054;-69
2020/12/06 13:01:59;;;;;;;27.52;14.50;;;;;;;;;;5002501;28;20057;-69
2020/12/06 13:04:25;;;;;;;25.48;14.70;;;;;;;;;;4999504;28;20053;-69
2020/12/06 13:06:52;;;;;;;23.65;14.48;;;;;;;;;;4994166;28;20056;-69
2020/12/06 13:09:19;;;;;;;29.70;15.50;;;;;;;;;;4999458;28;20428;-69
2020/12/06 13:11:45;;;;;;;25.88;14.57;;;;;;;;;;4998539;28;20054;-69
2020/12/06 13:14:11;;;;;;;25.00;14.10;;;;;;;;;;4997916;28;20048;-69
2020/12/06 13:16:37;;;;;;;20.38;12.60;;;;;;;;;;4998375;28;20079;-69
2020/12/06 13:19:05;;;;;;;19.30;11.48;;;;;;;;;;4983314;28;20528;-68
2020/12/06 13:21:34;;;;;;;27.50;13.30;;;;;;;;;;4999614;28;20061;-69
2020/12/06 13:24:02;;;;;;;23.42;13.15;;;;;;;;;;4997711;28;20536;-69
2020/12/06 13:26:28;;;;;;;21.38;12.50;;;;;;;;;;4998268;28;20077;-69
2020/12/06 13:28:55;;;;;;;23.83;13.55;;;;;;;;;;4999323;28;20049;-68
2020/12/06 13:31:23;;;;;;;19.88;13.40;;;;;;;;;;4999722;28;20405;-69
2020/12/06 13:33:49;;;;;;;21.83;13.20;;;;;;;;;;4996061;28;20400;-69
2020/12/06 13:36:19;;;;;;;18.52;11.90;;;;;;;;;;4998519;28;20054;-68
2020/12/06 13:38:46;;;;;;;18.48;11.10;;;;;;;;;;4996293;28;20473;-69
2020/12/06 13:41:13;;;;;;;14.88;11.10;;;;;;;;;;4996335;28;20042;-68
2020/12/06 13:43:40;;;;;;;17.73;12.40;;;;;;;;;;4999557;28;20042;-69
2020/12/06 13:46:07;;;;;;;14.82;11.02;;;;;;;;;;4994714;28;20038;-69
2020/12/06 13:48:34;;;;;;;14.90;10.88;;;;;;;;;;5002627;28;20061;-68
2020/12/06 13:51:02;;;;;;;13.70;11.07;;;;;;;;;;5010583;28;20137;-69
2020/12/06 13:53:28;;;;;;;13.43;10.73;;;;;;;;;;5008727;28;20050;-69
2020/12/06 13:55:56;;;;;;;14.25;10.85;;;;;;;;;;5008337;28;20164;-69
2020/12/06 13:58:23;;;;;;;13.85;11.63;;;;;;;;;;5010568;28;20056;-69
2020/12/06 14:00:49;;;;;;;21.33;13.93;;;;;;;;;;5010487;28;20485;-68
2020/12/06 14:03:15;;;;;;;15.88;12.38;;;;;;;;;;5010440;28;20053;-69
2020/12/06 14:05:41;;;;;;;15.30;12.00;;;;;;;;;;4993811;28;20054;-69
2020/12/06 14:08:08;;;;;;;17.00;12.57;;;;;;;;;;5010597;28;20057;-69
2020/12/06 14:10:34;;;;;;;13.07;11.13;;;;;;;;;;5010690;28;20065;-69
2020/12/06 14:13:01;;;;;;;12.65;10.70;;;;;;;;;;5010208;28;20050;-69
2020/12/06 14:15:27;;;;;;;11.40;9.63;;;;;;;;;;5009972;28;20049;-69
2020/12/06 14:17:57;;;;;;;11.32;9.80;;;;;;;;;;5010298;28;20089;-69
2020/12/06 14:20:23;;;;;;;10.98;9.02;;;;;;;;;;5010678;28;20054;-68
2020/12/06 14:22:49;;;;;;;9.55;8.30;;;;;;;;;;5009507;28;20046;-69
2020/12/06 14:25:15;;;;;;;9.75;8.68;;;;;;;;;;5009821;28;20054;-68
2020/12/06 14:27:41;;;;;;;13.05;9.75;;;;;;;;;;5010044;28;20069;-68
2020/12/06 14:30:07;;;;;;;11.95;8.82;;;;;;;;;;5010710;28;20049;-68